createdAt,value
2022-11-05T00:00:15.324Z,10.11
2022-11-05T00:03:01.670Z,10.17
2022-11-05T00:05:47.478Z,10.10
2022-11-05T00:08:33.070Z,10.10
2022-11-05T00:11:00.867Z,10.05
2022-11-05T00:13:46.728Z,10.10
2022-11-05T00:16:31.743Z,10.10
2022-11-05T00:19:09.993Z,10.10
2022-11-05T00:21:57.443Z,10.05
2022-11-05T00:24:45.377Z,10.06
2022-11-05T00:27:13.282Z,10.07
2022-11-05T00:29:40.989Z,10.02
2022-11-05T00:32:08.651Z,10.09
2022-11-05T00:34:37.632Z,9.99
2022-11-05T00:37:05.376Z,10.07
2022-11-05T00:39:33.147Z,10.03
2022-11-05T00:42:18.264Z,10.00
2022-11-05T00:45:04.411Z,9.98
2022-11-05T00:47:51.448Z,10.04
2022-11-05T00:50:21.792Z,9.99
2022-11-05T00:52:59.607Z,10.02
2022-11-05T00:55:37.985Z,9.96
2022-11-05T00:58:07.721Z,9.90
2022-11-05T01:00:37.298Z,9.91
2022-11-05T01:03:07.639Z,9.89
2022-11-05T01:05:40.221Z,9.97
2022-11-05T01:08:08.866Z,9.99
2022-11-05T01:10:40.124Z,9.99
2022-11-05T01:13:12.754Z,10.03
2022-11-05T01:15:41.414Z,10.06
2022-11-05T01:18:09.413Z,10.06
2022-11-05T01:20:38.737Z,10.07
2022-11-05T01:23:11.921Z,10.04
2022-11-05T01:25:41.143Z,9.93
2022-11-05T01:28:09.633Z,9.92
2022-11-05T01:30:37.728Z,9.89
2022-11-05T01:33:05.546Z,9.87
2022-11-05T01:35:33.165Z,9.86
2022-11-05T01:38:02.235Z,9.91
2022-11-05T01:40:29.910Z,10.00
2022-11-05T01:42:57.454Z,9.97
2022-11-05T01:45:27.199Z,10.01
2022-11-05T01:48:07.747Z,10.09
2022-11-05T01:50:50.536Z,10.11
2022-11-05T01:53:26.626Z,10.12
2022-11-05T01:55:59.977Z,10.10
2022-11-05T01:58:32.558Z,10.12
2022-11-05T02:01:00.212Z,10.12
2022-11-05T02:03:28.210Z,10.10
2022-11-05T02:05:58.183Z,10.07
2022-11-05T02:08:43.076Z,10.09
2022-11-05T02:11:13.147Z,10.01
2022-11-05T02:13:41.237Z,9.94
2022-11-05T02:16:16.299Z,9.92
2022-11-05T02:18:56.953Z,9.84
2022-11-05T02:21:56.405Z,9.86
2022-11-05T02:24:57.006Z,9.88
2022-11-05T02:27:44.183Z,9.91
2022-11-05T02:30:30.052Z,9.91
2022-11-05T02:33:14.557Z,9.96
2022-11-05T02:36:03.169Z,9.95
2022-11-05T02:38:41.507Z,9.99
2022-11-05T02:41:19.408Z,9.96
2022-11-05T02:43:59.142Z,9.93
2022-11-05T02:46:39.089Z,9.93
2022-11-05T02:49:16.599Z,9.89
2022-11-05T02:51:52.470Z,9.94
2022-11-05T02:54:27.363Z,9.95
2022-11-05T02:56:57.775Z,10.03
2022-11-05T02:59:25.380Z,10.06
2022-11-05T03:01:55.254Z,10.11
2022-11-05T03:04:24.938Z,10.20
2022-11-05T03:07:05.773Z,10.20
2022-11-05T03:09:51.157Z,10.13
2022-11-05T03:12:32.235Z,10.17
2022-11-05T03:15:10.164Z,10.17
2022-11-05T03:17:48.691Z,10.22
2022-11-05T03:20:20.965Z,10.14
2022-11-05T03:22:53.248Z,10.15
2022-11-05T03:25:23.728Z,10.20
2022-11-05T03:27:56.771Z,10.15
2022-11-05T03:30:25.170Z,10.17
2022-11-05T03:32:59.479Z,10.18
2022-11-05T03:35:31.680Z,10.17
2022-11-05T03:38:03.435Z,10.05
2022-11-05T03:40:34.944Z,9.98
2022-11-05T03:43:07.494Z,10.00
2022-11-05T03:45:39.665Z,9.99
2022-11-05T03:48:13.553Z,9.96
2022-11-05T03:50:47.295Z,9.93
2022-11-05T03:53:18.033Z,9.95
2022-11-05T03:56:03.827Z,9.99
2022-11-05T03:58:32.167Z,10.04
2022-11-05T04:01:02.259Z,10.05
2022-11-05T04:03:36.326Z,10.03
2022-11-05T04:06:22.640Z,10.04
2022-11-05T04:09:08.245Z,10.09
2022-11-05T04:11:53.614Z,10.04
2022-11-05T04:14:21.251Z,10.04
2022-11-05T04:17:06.545Z,10.12
2022-11-05T04:19:54.484Z,10.16
2022-11-05T04:22:39.587Z,10.20
2022-11-05T04:25:07.591Z,10.19
2022-11-05T04:27:35.535Z,10.09
2022-11-05T04:30:21.549Z,10.00
2022-11-05T04:33:04.779Z,10.01
2022-11-05T04:35:36.483Z,9.98
2022-11-05T04:38:05.517Z,10.01
2022-11-05T04:40:33.195Z,9.88
2022-11-05T04:43:01.402Z,9.95
2022-11-05T04:45:31.167Z,10.04
2022-11-05T04:47:58.791Z,10.02
2022-11-05T04:50:26.540Z,9.94
2022-11-05T04:52:55.913Z,9.92
2022-11-05T04:55:23.443Z,9.94
2022-11-05T04:57:52.584Z,9.89
2022-11-05T05:00:21.752Z,9.79
2022-11-05T05:02:49.879Z,9.72
2022-11-05T05:05:17.674Z,9.62
2022-11-05T05:07:45.672Z,9.61
2022-11-05T05:10:14.663Z,9.59
2022-11-05T05:12:42.294Z,9.56
2022-11-05T05:15:09.906Z,9.56
2022-11-05T05:17:37.572Z,9.62
2022-11-05T05:20:25.472Z,9.54
2022-11-05T05:22:53.988Z,9.50
2022-11-05T05:25:23.713Z,9.49
2022-11-05T05:27:51.448Z,9.41
2022-11-05T05:30:19.383Z,9.27
2022-11-05T05:32:47.034Z,9.22
2022-11-05T05:35:14.659Z,9.18
2022-11-05T05:37:42.512Z,9.13
2022-11-05T05:40:11.154Z,9.11
2022-11-05T05:42:43.216Z,9.11
2022-11-05T05:45:12.490Z,9.11
2022-11-05T05:47:40.252Z,9.10
2022-11-05T05:50:08.149Z,9.12
2022-11-05T05:52:35.756Z,9.15
2022-11-05T05:55:03.373Z,9.18
2022-11-05T05:57:30.970Z,9.21
2022-11-05T06:00:01.758Z,9.33
2022-11-05T06:02:31.309Z,9.33
2022-11-05T06:04:59.036Z,9.36
2022-11-05T06:07:26.630Z,9.32
2022-11-05T06:09:54.341Z,9.35
2022-11-05T06:12:21.915Z,9.42
2022-11-05T06:14:49.531Z,9.49
2022-11-05T06:17:18.452Z,9.47
2022-11-05T06:19:46.129Z,9.44
2022-11-05T06:22:13.716Z,9.52
2022-11-05T06:24:41.276Z,9.44
2022-11-05T06:27:08.964Z,9.51
2022-11-05T06:29:36.504Z,9.54
2022-11-05T06:32:04.223Z,9.59
2022-11-05T06:34:33.205Z,9.64
2022-11-05T06:37:00.879Z,9.69
2022-11-05T06:39:28.532Z,9.75
2022-11-05T06:42:17.435Z,9.68
2022-11-05T06:44:43.617Z,9.68
2022-11-05T06:47:12.227Z,9.71
2022-11-05T06:49:41.137Z,9.68
2022-11-05T06:52:08.833Z,9.67
2022-11-05T06:54:36.547Z,9.68
2022-11-05T06:57:04.568Z,9.71
2022-11-05T06:59:32.119Z,9.75
2022-11-05T07:01:59.750Z,9.76
2022-11-05T07:04:27.488Z,9.74
2022-11-05T07:06:56.673Z,9.72
2022-11-05T07:09:24.677Z,9.77
2022-11-05T07:11:53.517Z,9.79
2022-11-05T07:14:21.225Z,9.80
2022-11-05T07:16:48.840Z,9.65
2022-11-05T07:19:16.562Z,9.60
2022-11-05T07:21:44.223Z,9.55
2022-11-05T07:24:14.318Z,9.49
2022-11-05T07:26:42.667Z,9.44
2022-11-05T07:29:10.293Z,9.46
2022-11-05T07:31:37.890Z,9.47
2022-11-05T07:34:05.447Z,9.47
2022-11-05T07:36:33.019Z,9.51
2022-11-05T07:39:00.827Z,9.55
2022-11-05T07:41:30.197Z,9.57
2022-11-05T07:43:57.911Z,9.68
2022-11-05T07:46:25.626Z,9.79
2022-11-05T07:48:53.182Z,10.26
2022-11-05T07:51:20.991Z,10.86
2022-11-05T07:53:49.189Z,11.02
2022-11-05T07:56:16.920Z,11.32
2022-11-05T07:58:46.738Z,11.20
2022-11-05T08:01:14.472Z,11.22
2022-11-05T08:03:42.348Z,11.09
2022-11-05T08:06:10.211Z,10.85
2022-11-05T08:08:37.803Z,10.86
2022-11-05T08:11:06.588Z,11.13
2022-11-05T08:13:34.556Z,11.16
2022-11-05T08:16:04.174Z,11.23
2022-11-05T08:18:33.129Z,11.55
2022-11-05T08:21:01.927Z,11.81
2022-11-05T08:23:31.139Z,12.04
2022-11-05T08:25:59.752Z,11.98
2022-11-05T08:28:27.607Z,12.42
2022-11-05T08:30:57.147Z,12.77
2022-11-05T08:33:27.372Z,12.72
2022-11-05T08:35:55.030Z,12.44
2022-11-05T08:38:22.620Z,12.63
2022-11-05T08:40:55.993Z,12.51
2022-11-05T08:43:26.203Z,12.40
2022-11-05T08:45:54.947Z,12.40
2022-11-05T08:48:22.914Z,12.70
2022-11-05T08:50:51.877Z,12.85
2022-11-05T08:53:19.863Z,12.65
2022-11-05T08:55:52.184Z,12.53
2022-11-05T08:58:20.628Z,12.43
2022-11-05T09:00:50.734Z,12.25
2022-11-05T09:03:19.296Z,12.31
2022-11-05T09:05:47.354Z,12.30
2022-11-05T09:08:19.418Z,12.43
2022-11-05T09:10:49.596Z,12.27
2022-11-05T09:13:19.713Z,12.28
2022-11-05T09:15:49.229Z,12.52
2022-11-05T09:18:18.164Z,12.59
2022-11-05T09:20:46.502Z,12.50
2022-11-05T09:23:16.090Z,12.69
2022-11-05T09:25:44.270Z,12.77
2022-11-05T09:28:16.915Z,12.64
2022-11-05T09:30:47.211Z,12.42
2022-11-05T09:33:15.909Z,12.42
2022-11-05T09:35:44.289Z,12.49
2022-11-05T09:38:14.344Z,12.72
2022-11-05T09:40:53.582Z,12.64
2022-11-05T09:43:31.259Z,12.60
2022-11-05T09:46:03.953Z,12.59
2022-11-05T09:48:35.958Z,12.53
2022-11-05T09:51:06.021Z,12.44
2022-11-05T09:53:39.127Z,12.33
2022-11-05T09:56:22.376Z,12.47
2022-11-05T09:58:55.544Z,12.24
2022-11-05T10:01:28.899Z,12.15
2022-11-05T10:04:02.273Z,12.07
2022-11-05T10:06:30.319Z,12.21
2022-11-05T10:09:04.110Z,12.28
2022-11-05T10:11:42.507Z,12.25
2022-11-05T10:14:19.764Z,12.37
2022-11-05T10:16:52.538Z,12.62
2022-11-05T10:19:25.010Z,12.76
2022-11-05T10:22:06.625Z,12.79
2022-11-05T10:24:35.438Z,12.85
2022-11-05T10:27:06.909Z,12.77
2022-11-05T10:29:36.185Z,12.77
2022-11-05T10:32:07.216Z,12.01
2022-11-05T10:34:39.248Z,12.35
2022-11-05T10:37:09.286Z,12.38
2022-11-05T10:39:37.534Z,12.57
2022-11-05T10:42:26.027Z,12.50
2022-11-05T10:45:02.922Z,12.53
2022-11-05T10:47:50.385Z,12.31
2022-11-05T10:50:20.854Z,12.42
2022-11-05T10:52:57.249Z,12.27
2022-11-05T10:55:28.535Z,12.58
2022-11-05T10:58:09.981Z,12.81
2022-11-05T11:00:38.819Z,12.70
2022-11-05T11:03:27.485Z,13.00
2022-11-05T11:06:00.792Z,13.21
2022-11-05T11:08:29.520Z,13.09
2022-11-05T11:11:03.013Z,13.01
2022-11-05T11:13:51.078Z,12.89
2022-11-05T11:16:22.395Z,12.90
2022-11-05T11:18:55.217Z,13.02
2022-11-05T11:21:24.155Z,13.18
2022-11-05T11:23:57.202Z,13.73
2022-11-05T11:26:27.045Z,14.25
2022-11-05T11:29:00.932Z,14.50
2022-11-05T11:31:31.150Z,14.47
2022-11-05T11:34:03.264Z,14.38
2022-11-05T11:36:37.659Z,14.01
2022-11-05T11:39:07.959Z,14.02
2022-11-05T11:41:38.828Z,14.19
2022-11-05T11:44:13.947Z,14.22
2022-11-05T11:46:42.504Z,13.98
2022-11-05T11:49:31.747Z,14.39
2022-11-05T11:52:05.301Z,14.44
2022-11-05T11:54:35.316Z,14.56
2022-11-05T11:57:21.702Z,14.37
2022-11-05T12:00:09.691Z,14.38
2022-11-05T12:02:55.988Z,14.37
2022-11-05T12:05:36.161Z,14.34
2022-11-05T12:08:18.298Z,13.91
2022-11-05T12:10:56.141Z,13.96
2022-11-05T12:13:44.256Z,14.22
2022-11-05T12:16:21.491Z,14.00
2022-11-05T12:18:59.431Z,13.82
2022-11-05T12:21:52.088Z,13.67
2022-11-05T12:24:31.258Z,13.51
2022-11-05T12:27:09.423Z,13.27
2022-11-05T12:29:49.049Z,13.28
2022-11-05T12:32:39.398Z,13.31
2022-11-05T12:35:19.607Z,13.36
2022-11-05T12:37:55.836Z,13.21
2022-11-05T12:40:47.839Z,13.22
2022-11-05T12:43:26.955Z,13.15
2022-11-05T12:46:03.699Z,13.33
2022-11-05T12:48:47.462Z,13.50
2022-11-05T12:51:31.071Z,13.48
2022-11-05T12:54:16.324Z,13.35
2022-11-05T12:56:48.784Z,13.39
2022-11-05T12:59:22.273Z,13.28
2022-11-05T13:01:54.518Z,13.33
2022-11-05T13:04:38.955Z,13.43
2022-11-05T13:07:10.619Z,13.64
2022-11-05T13:09:45.415Z,13.64
2022-11-05T13:12:15.511Z,13.62
2022-11-05T13:14:48.155Z,13.77
2022-11-05T13:17:22.702Z,13.64
2022-11-05T13:20:13.091Z,13.55
2022-11-05T13:22:48.729Z,13.46
2022-11-05T13:25:21.008Z,13.46
2022-11-05T13:27:57.428Z,13.27
2022-11-05T13:30:27.235Z,13.39
2022-11-05T13:32:59.516Z,13.49
2022-11-05T13:35:32.828Z,13.36
2022-11-05T13:38:23.766Z,13.18
2022-11-05T13:41:03.167Z,12.96
2022-11-05T13:43:58.236Z,12.95
2022-11-05T13:46:54.521Z,12.82
2022-11-05T13:49:52.390Z,12.62
2022-11-05T13:53:17.658Z,12.53
2022-11-05T13:56:06.910Z,12.52
2022-11-05T13:59:13.161Z,12.37
2022-11-05T14:01:50.574Z,12.40
2022-11-05T14:04:34.569Z,12.12
2022-11-05T14:07:12.606Z,11.65
2022-11-05T14:09:43.089Z,11.73
2022-11-05T14:12:22.201Z,11.47
2022-11-05T14:14:58.907Z,11.48
2022-11-05T14:17:32.102Z,11.58
2022-11-05T14:20:41.238Z,11.68
2022-11-05T14:23:39.042Z,11.61
2022-11-05T14:26:16.340Z,11.67
2022-11-05T14:28:49.596Z,11.59
2022-11-05T14:32:06.985Z,11.47
2022-11-05T14:34:49.299Z,11.40
2022-11-05T14:37:29.191Z,11.41
2022-11-05T14:39:58.031Z,11.37
2022-11-05T14:42:29.375Z,11.45
2022-11-05T14:45:01.460Z,11.48
2022-11-05T14:47:32.554Z,11.61
2022-11-05T14:50:08.712Z,11.46
2022-11-05T14:52:37.944Z,11.55
2022-11-05T14:55:07.619Z,11.57
2022-11-05T14:58:17.826Z,11.43
2022-11-05T15:00:50.825Z,11.29
2022-11-05T15:04:01.849Z,11.30
2022-11-05T15:06:32.552Z,11.29
2022-11-05T15:09:24.339Z,11.26
2022-11-05T15:12:10.405Z,11.20
2022-11-05T15:14:48.149Z,11.11
2022-11-05T15:17:23.813Z,11.05
2022-11-05T15:19:52.940Z,11.03
2022-11-05T15:22:40.788Z,10.99
2022-11-05T15:25:18.119Z,10.98
2022-11-05T15:27:57.027Z,10.87
2022-11-05T15:30:25.587Z,10.76
2022-11-05T15:32:54.604Z,10.78
2022-11-05T15:35:26.749Z,10.76
2022-11-05T15:38:01.709Z,10.66
2022-11-05T15:40:31.728Z,10.67
2022-11-05T15:43:09.679Z,10.64
2022-11-05T15:45:37.666Z,10.68
2022-11-05T15:48:15.334Z,10.67
2022-11-05T15:50:43.321Z,10.69
2022-11-05T15:56:11.808Z,10.69
2022-11-05T15:58:46.926Z,10.83
2022-11-05T16:01:23.316Z,10.78
2022-11-05T16:03:53.625Z,10.69
2022-11-05T16:06:22.108Z,10.57
2022-11-05T16:08:51.244Z,10.52
2022-11-05T16:11:25.987Z,10.34
2022-11-05T16:13:54.514Z,10.14
2022-11-05T16:16:34.233Z,10.27
2022-11-05T16:19:26.107Z,10.02
2022-11-05T16:21:54.686Z,9.82
2022-11-05T16:24:29.206Z,9.76
2022-11-05T16:27:03.006Z,9.77
2022-11-05T16:29:34.436Z,9.65
2022-11-05T16:32:04.957Z,9.54
2022-11-05T16:34:37.581Z,9.39
2022-11-05T16:37:07.222Z,9.37
2022-11-05T16:39:35.297Z,9.32
2022-11-05T16:42:02.978Z,9.25
2022-11-05T16:44:31.060Z,9.34
2022-11-05T16:46:59.094Z,9.47
2022-11-05T16:49:26.641Z,9.39
2022-11-05T16:51:55.547Z,9.30
2022-11-05T16:54:23.148Z,9.31
2022-11-05T16:56:50.967Z,9.41
2022-11-05T16:59:18.654Z,9.41
2022-11-05T17:01:48.296Z,9.25
2022-11-05T17:04:23.818Z,9.21
2022-11-05T17:06:51.999Z,9.11
2022-11-05T17:09:21.348Z,9.02
2022-11-05T17:11:49.238Z,8.92
2022-11-05T17:14:17.228Z,8.94
2022-11-05T17:16:44.885Z,8.89
2022-11-05T17:19:16.559Z,8.87
2022-11-05T17:21:44.611Z,8.85
2022-11-05T17:24:12.214Z,8.79
2022-11-05T17:26:41.267Z,8.89
2022-11-05T17:29:08.930Z,8.82
2022-11-05T17:31:36.796Z,8.80
2022-11-05T17:34:04.482Z,8.71
2022-11-05T17:36:34.405Z,8.67
2022-11-05T17:39:04.438Z,8.66
2022-11-05T17:41:35.114Z,8.61
2022-11-05T17:44:04.682Z,8.60
2022-11-05T17:46:32.635Z,8.73
2022-11-05T17:49:00.242Z,8.67
2022-11-05T17:51:28.028Z,8.55
2022-11-05T17:53:55.734Z,8.52
2022-11-05T17:56:33.493Z,8.54
2022-11-05T17:59:04.482Z,8.40
2022-11-05T18:01:35.549Z,8.31
2022-11-05T18:04:08.630Z,8.28
2022-11-05T18:06:38.577Z,8.27
2022-11-05T18:09:06.327Z,8.21
2022-11-05T18:11:35.269Z,8.18
2022-11-05T18:14:05.186Z,8.22
2022-11-05T18:16:33.987Z,8.24
2022-11-05T18:19:04.584Z,8.25
2022-11-05T18:21:34.711Z,8.21
2022-11-05T18:24:03.635Z,8.20
2022-11-05T18:26:31.377Z,8.19
2022-11-05T18:29:03.335Z,8.13
2022-11-05T18:31:32.489Z,8.17
2022-11-05T18:34:02.925Z,8.10
2022-11-05T18:36:33.834Z,8.13
2022-11-05T18:39:03.107Z,8.13
2022-11-05T18:41:31.474Z,8.16
2022-11-05T18:44:00.620Z,8.22
2022-11-05T18:46:56.009Z,8.24
2022-11-05T18:49:17.625Z,8.22
2022-11-05T18:51:45.206Z,8.21
2022-11-05T18:54:13.439Z,8.19
2022-11-05T18:56:45.397Z,8.19
2022-11-05T18:59:35.875Z,8.13
2022-11-05T19:02:01.384Z,8.11
2022-11-05T19:04:32.996Z,8.21
2022-11-05T19:07:04.860Z,8.21
2022-11-05T19:09:33.167Z,8.22
2022-11-05T19:12:00.792Z,8.18
2022-11-05T19:14:29.882Z,8.22
2022-11-05T19:16:58.056Z,8.20
2022-11-05T19:19:25.917Z,8.20
2022-11-05T19:21:55.250Z,8.26
2022-11-05T19:24:22.835Z,8.25
2022-11-05T19:26:50.841Z,8.26
2022-11-05T19:29:18.726Z,8.24
2022-11-05T19:31:46.849Z,8.30
2022-11-05T19:34:16.252Z,8.23
2022-11-05T19:36:44.408Z,8.22
2022-11-05T19:39:18.284Z,8.22
2022-11-05T19:41:45.952Z,8.23
2022-11-05T19:44:13.598Z,8.24
2022-11-05T19:46:41.525Z,8.22
2022-11-05T19:49:09.129Z,8.27
2022-11-05T19:51:44.272Z,8.23
2022-11-05T19:54:15.258Z,8.17
2022-11-05T19:56:42.976Z,8.20
2022-11-05T19:59:12.833Z,8.25
2022-11-05T20:01:40.831Z,8.21
2022-11-05T20:04:08.615Z,8.23
2022-11-05T20:06:39.952Z,8.23
2022-11-05T20:09:25.790Z,8.20
2022-11-05T20:11:56.295Z,8.24
2022-11-05T20:14:25.497Z,8.22
2022-11-05T20:16:53.782Z,8.21
2022-11-05T20:19:23.803Z,8.20
2022-11-05T20:21:55.484Z,8.21
2022-11-05T20:24:25.499Z,8.20
2022-11-05T20:26:56.474Z,8.17
2022-11-05T20:29:34.760Z,8.16
2022-11-05T20:32:07.025Z,8.22
2022-11-05T20:34:36.800Z,8.16
2022-11-05T20:37:05.003Z,8.11
2022-11-05T20:39:32.907Z,8.00
2022-11-05T20:42:06.868Z,8.01
2022-11-05T20:44:34.711Z,7.97
2022-11-05T20:47:02.369Z,7.97
2022-11-05T20:49:30.004Z,7.97
2022-11-05T20:51:57.670Z,7.98
2022-11-05T20:54:25.471Z,7.98
2022-11-05T20:56:53.131Z,7.92
2022-11-05T20:59:22.157Z,7.95
2022-11-05T21:04:33.109Z,7.88
2022-11-05T21:07:00.694Z,7.94
2022-11-05T21:09:28.347Z,7.88
2022-11-05T21:12:11.204Z,7.84
2022-11-05T21:14:41.773Z,7.92
2022-11-05T21:17:11.470Z,7.87
2022-11-05T21:19:39.574Z,7.95
2022-11-05T21:22:11.065Z,7.90
2022-11-05T21:24:38.602Z,7.99
2022-11-05T21:27:06.177Z,8.01
2022-11-05T21:29:33.806Z,7.96
2022-11-05T21:32:08.321Z,7.99
2022-11-05T21:34:36.065Z,7.94
2022-11-05T21:37:05.574Z,8.06
2022-11-05T21:39:34.795Z,8.11
2022-11-05T21:42:02.954Z,8.11
2022-11-05T21:44:30.866Z,8.10
2022-11-05T21:46:58.731Z,8.11
2022-11-05T21:49:27.667Z,8.00
2022-11-05T21:52:13.047Z,8.07
2022-11-05T21:54:58.328Z,8.06
2022-11-05T21:57:43.801Z,8.11
2022-11-05T22:00:14.410Z,8.16
2022-11-05T22:02:42.238Z,8.11
2022-11-05T22:05:11.562Z,8.19
2022-11-05T22:07:40.381Z,8.24
2022-11-05T22:10:15.794Z,8.25
2022-11-05T22:12:44.274Z,8.21
2022-11-05T22:15:13.379Z,8.27
2022-11-05T22:17:46.194Z,8.30
2022-11-05T22:20:16.408Z,8.37
2022-11-05T22:22:44.676Z,8.35
2022-11-05T22:25:13.283Z,8.30
2022-11-05T22:27:40.872Z,8.27
2022-11-05T22:30:09.472Z,8.23
2022-11-05T22:32:38.706Z,8.22
2022-11-05T22:35:07.723Z,8.20
2022-11-05T22:37:36.618Z,8.20
2022-11-05T22:40:04.819Z,8.12
2022-11-05T22:42:32.611Z,8.20
2022-11-05T22:45:00.280Z,8.17
2022-11-05T22:47:27.920Z,8.19
2022-11-05T22:49:55.563Z,8.21
2022-11-05T22:52:24.232Z,8.11
2022-11-05T22:54:55.393Z,8.07
2022-11-05T22:57:24.055Z,8.11
2022-11-05T22:59:51.644Z,8.11
2022-11-05T23:02:19.311Z,8.08
2022-11-05T23:04:48.806Z,8.06
2022-11-05T23:07:45.822Z,7.99
2022-11-05T23:10:32.358Z,7.93
2022-11-05T23:12:59.957Z,7.96
2022-11-05T23:15:45.431Z,7.92
2022-11-05T23:18:30.513Z,7.84
2022-11-05T23:21:20.572Z,7.88
2022-11-05T23:24:05.572Z,7.82
2022-11-05T23:26:51.398Z,7.76
2022-11-05T23:29:20.399Z,7.75
2022-11-05T23:32:05.446Z,7.74
2022-11-05T23:34:33.094Z,7.70
2022-11-05T23:37:18.545Z,7.69
2022-11-05T23:39:46.247Z,7.73
2022-11-05T23:42:32.788Z,7.72
2022-11-05T23:45:17.952Z,7.69
2022-11-05T23:48:03.431Z,7.75
2022-11-05T23:50:36.926Z,7.83
2022-11-05T23:53:07.155Z,7.87
2022-11-05T23:55:34.917Z,7.85
2022-11-05T23:58:04.073Z,7.90
